Terminal Aerodrome Forecast
Issued by NWS Grand Forks, ND

Home | Current Version | Previous Version | Graphics & Text | Print | Product List | Glossary Off
Versions: 1 2 3 4 5 6 7 8 9 10 11 12 13 14 15 16 17 18

400
FTUS43 KFGF 312007 AAB
TAFFAR
TAF AMD
KFAR 312007Z 3120/0118 22017G25KT P6SM BKN050
     FM010200 22014KT P6SM BKN040
     FM010600 22014KT P6SM BKN025
     FM010900 25012KT P6SM BKN025
     FM011000 26012KT P6SM BKN020
     FM011500 29012KT P6SM BKN015=

USA.gov is the U.S. government's official web portal to all federal, state and local government web resources and services.